createdAt,value
2023-04-14T00:00:13.776Z,100307.88
2023-04-14T00:02:47.983Z,100305.94
2023-04-14T00:05:20.448Z,100293.97
2023-04-14T00:07:51.461Z,100296.16
2023-04-14T00:10:22.630Z,100306.78
2023-04-14T00:12:54.345Z,100321.81
2023-04-14T00:15:27.700Z,100301.28
2023-04-14T00:18:01.601Z,100291.66
2023-04-14T00:20:32.838Z,100317.13
2023-04-14T00:23:04.370Z,100337.06
2023-04-14T00:25:34.977Z,100334.81
2023-04-14T00:28:05.844Z,100325.03
2023-04-14T00:30:36.559Z,100331.84
2023-04-14T00:33:09.846Z,100317.34
2023-04-14T00:35:40.739Z,100334.91
2023-04-14T00:38:12.291Z,100277.91
2023-04-14T00:40:43.198Z,100303.72
2023-04-14T00:43:14.674Z,100312.91
2023-04-14T00:45:49.696Z,100333.88
2023-04-14T00:48:24.747Z,100319.22
2023-04-14T00:50:55.923Z,100340.16
2023-04-14T00:53:27.550Z,100340.03
2023-04-14T00:55:58.357Z,100343.84
2023-04-14T00:58:29.846Z,100340.44
2023-04-14T01:01:01.936Z,100348.09
2023-04-14T01:03:36.402Z,100351.19
2023-04-14T01:06:08.020Z,100347.44
2023-04-14T01:08:39.508Z,100358.75
2023-04-14T01:11:17.210Z,100349.28
2023-04-14T01:14:01.433Z,100345.16
2023-04-14T01:16:35.816Z,100339.38
2023-04-14T01:19:35.526Z,100343.97
2023-04-14T01:22:09.745Z,100338.06
2023-04-14T01:24:54.849Z,100336.22
2023-04-14T01:27:38.865Z,100321.41
2023-04-14T01:30:41.890Z,100335.75
2023-04-14T01:33:21.219Z,100338.25
2023-04-14T01:35:55.981Z,100316.50
2023-04-14T01:38:31.576Z,100345.13
2023-04-14T01:41:08.429Z,100328.03
2023-04-14T01:43:45.351Z,100337.13
2023-04-14T01:46:20.468Z,100341.25
2023-04-14T01:48:54.329Z,100345.53
2023-04-14T01:51:27.653Z,100322.50
2023-04-14T01:54:00.279Z,100343.19
2023-04-14T01:56:32.761Z,100348.44
2023-04-14T01:59:05.358Z,100335.84
2023-04-14T02:01:37.951Z,100345.28
2023-04-14T02:04:11.907Z,100333.75
2023-04-14T02:06:46.245Z,100344.16
2023-04-14T02:09:18.489Z,100262.28
2023-04-14T02:11:52.059Z,100350.59
2023-04-14T02:14:24.722Z,100348.84
2023-04-14T02:16:57.698Z,100354.97
2023-04-14T02:19:33.067Z,100300.56
2023-04-14T02:22:06.616Z,100347.22
2023-04-14T02:24:37.770Z,100346.34
2023-04-14T02:27:13.411Z,100354.72
2023-04-14T02:29:48.239Z,100357.94
2023-04-14T02:32:26.038Z,100352.78
2023-04-14T02:35:12.391Z,100345.38
2023-04-14T02:37:46.859Z,100354.06
2023-04-14T02:40:21.317Z,100367.69
2023-04-14T02:42:59.157Z,100346.00
2023-04-14T02:45:33.856Z,100309.50
2023-04-14T02:48:11.222Z,100366.81
2023-04-14T02:50:49.352Z,100364.69
2023-04-14T02:53:26.816Z,100353.50
2023-04-14T02:56:14.282Z,100310.22
2023-04-14T02:58:48.569Z,100362.06
2023-04-14T03:01:23.033Z,100350.34
2023-04-14T03:03:58.645Z,100358.19
2023-04-14T03:06:33.430Z,100364.28
2023-04-14T03:09:07.923Z,100344.78
2023-04-14T03:11:41.443Z,100356.53
2023-04-14T03:14:14.756Z,100364.75
2023-04-14T03:16:46.794Z,100351.09
2023-04-14T03:19:18.764Z,100360.00
2023-04-14T03:21:54.888Z,100374.44
2023-04-14T03:24:31.404Z,100384.81
2023-04-14T03:27:07.774Z,100384.19
2023-04-14T03:29:44.108Z,100392.03
2023-04-14T03:32:18.135Z,100385.63
2023-04-14T03:34:55.105Z,100379.06
2023-04-14T03:37:30.244Z,100332.03
2023-04-14T03:40:09.468Z,100384.28
2023-04-14T03:42:45.055Z,100380.41
2023-04-14T03:45:22.222Z,100387.50
2023-04-14T03:47:57.928Z,100374.38
2023-04-14T03:50:33.162Z,100374.34
2023-04-14T03:53:09.670Z,100364.41
2023-04-14T03:55:41.601Z,100379.72
2023-04-14T03:58:16.208Z,100383.00
2023-04-14T04:00:50.418Z,100375.34
2023-04-14T04:03:23.076Z,100380.72
2023-04-14T04:05:54.611Z,100386.63
2023-04-14T04:08:30.116Z,100373.25
2023-04-14T04:11:01.222Z,100397.81
2023-04-14T04:13:34.046Z,100380.09
2023-04-14T04:16:05.283Z,100401.47
2023-04-14T04:18:44.164Z,100404.47
2023-04-14T04:21:17.544Z,100400.16
2023-04-14T04:23:56.534Z,100388.09
2023-04-14T04:26:30.316Z,100400.00
2023-04-14T04:29:02.274Z,100403.91
2023-04-14T04:31:34.508Z,100397.88
2023-04-14T04:34:06.451Z,100400.47
2023-04-14T04:36:40.764Z,100398.19
2023-04-14T04:39:14.149Z,100389.28
2023-04-14T04:41:46.832Z,100397.97
2023-04-14T04:44:17.475Z,100403.81
2023-04-14T04:46:55.063Z,100396.03
2023-04-14T04:49:31.911Z,100395.28
2023-04-14T04:52:06.764Z,100402.38
2023-04-14T04:54:40.814Z,100404.50
2023-04-14T04:57:12.247Z,100404.88
2023-04-14T04:59:43.201Z,100401.16
2023-04-14T05:02:13.927Z,100407.63
2023-04-14T05:04:44.962Z,100414.75
2023-04-14T05:07:15.804Z,100413.16
2023-04-14T05:09:49.324Z,100406.94
2023-04-14T05:12:20.187Z,100420.41
2023-04-14T05:14:52.030Z,100411.88
2023-04-14T05:17:23.309Z,100426.41
2023-04-14T05:19:54.026Z,100411.63
2023-04-14T05:22:24.951Z,100429.72
2023-04-14T05:24:58.888Z,100428.44
2023-04-14T05:27:29.704Z,100428.38
2023-04-14T05:30:03.258Z,100438.66
2023-04-14T05:32:34.053Z,100426.88
2023-04-14T05:35:05.558Z,100432.19
2023-04-14T05:37:36.719Z,100424.47
2023-04-14T05:40:12.126Z,100426.38
2023-04-14T05:42:43.628Z,100419.50
2023-04-14T05:45:14.674Z,100423.03
2023-04-14T05:47:46.920Z,100412.31
2023-04-14T05:50:19.291Z,100415.81
2023-04-14T05:52:52.263Z,100412.88
2023-04-14T05:55:26.040Z,100410.88
2023-04-14T05:57:56.793Z,100413.81
2023-04-14T06:00:28.086Z,100398.69
2023-04-14T06:02:59.244Z,100411.63
2023-04-14T06:05:30.422Z,100409.88
2023-04-14T06:08:01.443Z,100422.09
2023-04-14T06:10:35.869Z,100414.84
2023-04-14T06:13:08.807Z,100402.47
2023-04-14T06:15:40.112Z,100411.25
2023-04-14T06:18:10.761Z,100411.56
2023-04-14T06:20:42.375Z,100405.69
2023-04-14T06:23:13.236Z,100412.97
2023-04-14T06:25:46.499Z,100416.63
2023-04-14T06:28:17.155Z,100411.75
2023-04-14T06:30:48.003Z,100414.13
2023-04-14T06:33:18.861Z,100406.31
2023-04-14T06:35:49.544Z,100419.19
2023-04-14T06:38:20.163Z,100415.50
2023-04-14T06:40:54.078Z,100409.28
2023-04-14T06:43:25.306Z,100409.00
2023-04-14T06:45:56.125Z,100409.88
2023-04-14T06:48:27.574Z,100406.91
2023-04-14T06:50:58.921Z,100407.81
2023-04-14T06:53:31.199Z,100412.78
2023-04-14T06:56:09.348Z,100406.72
2023-04-14T06:58:40.428Z,100416.03
2023-04-14T07:01:11.433Z,100410.28
2023-04-14T07:03:42.446Z,100387.22
2023-04-14T07:06:16.930Z,100403.19
2023-04-14T07:08:48.487Z,100398.16
2023-04-14T07:11:21.709Z,100380.84
2023-04-14T07:13:52.751Z,100399.94
2023-04-14T07:16:23.630Z,100393.56
2023-04-14T07:18:54.577Z,100399.16
2023-04-14T07:21:26.643Z,100389.78
2023-04-14T07:23:57.627Z,100398.78
2023-04-14T07:26:31.166Z,100382.53
2023-04-14T07:29:02.358Z,100374.38
2023-04-14T07:31:34.876Z,100384.06
2023-04-14T07:34:06.128Z,100400.84
2023-04-14T07:36:37.387Z,100389.84
2023-04-14T07:39:08.502Z,100384.97
2023-04-14T07:41:41.884Z,100392.63
2023-04-14T07:44:12.907Z,100370.94
2023-04-14T07:46:44.147Z,100379.63
2023-04-14T07:49:15.421Z,100390.31
2023-04-14T07:51:46.063Z,100397.81
2023-04-14T07:54:17.268Z,100382.53
2023-04-14T07:56:51.299Z,100400.69
2023-04-14T07:59:21.954Z,100407.88
2023-04-14T08:01:52.757Z,100406.09
2023-04-14T08:04:23.925Z,100407.78
2023-04-14T08:06:54.654Z,100411.28
2023-04-14T08:09:25.599Z,100403.44
2023-04-14T08:11:59.756Z,100397.38
2023-04-14T08:14:30.752Z,100404.94
2023-04-14T08:17:01.412Z,100403.91
2023-04-14T08:19:33.976Z,100386.91
2023-04-14T08:22:04.640Z,100405.13
2023-04-14T08:24:37.942Z,100394.56
2023-04-14T08:27:11.663Z,100394.69
2023-04-14T08:29:42.389Z,100392.81
2023-04-14T08:32:13.234Z,100374.50
2023-04-14T08:35:35.080Z,100395.84
2023-04-14T08:37:36.228Z,100394.13
2023-04-14T08:40:13.271Z,100387.00
2023-04-14T08:42:48.876Z,100394.75
2023-04-14T08:45:20.140Z,100386.47
2023-04-14T08:47:54.466Z,100391.00
2023-04-14T08:50:35.024Z,100402.44
2023-04-14T08:53:07.074Z,100406.78
2023-04-14T08:55:43.170Z,100406.31
2023-04-14T08:58:22.892Z,100405.97
2023-04-14T09:00:55.975Z,100393.34
2023-04-14T09:03:28.600Z,100397.75
2023-04-14T09:06:00.372Z,100399.28
2023-04-14T09:08:34.223Z,100401.53
2023-04-14T09:11:08.242Z,100388.56
2023-04-14T09:13:43.812Z,100411.13
2023-04-14T09:16:15.964Z,100400.41
2023-04-14T09:18:47.494Z,100400.66
2023-04-14T09:21:29.378Z,100400.75
2023-04-14T09:24:13.773Z,100407.59
2023-04-14T09:26:45.253Z,100397.22
2023-04-14T09:29:19.069Z,100404.53
2023-04-14T09:31:50.818Z,100334.25
2023-04-14T09:34:23.819Z,100391.28
2023-04-14T09:37:07.149Z,100386.94
2023-04-14T09:39:38.951Z,100382.91
2023-04-14T09:42:11.978Z,100371.59
2023-04-14T09:44:55.855Z,100379.09
2023-04-14T09:47:27.031Z,100374.09
2023-04-14T09:50:04.022Z,100386.72
2023-04-14T09:52:42.773Z,100363.81
2023-04-14T09:55:15.180Z,100367.06
2023-04-14T09:57:48.377Z,100371.34
2023-04-14T10:00:26.570Z,100371.16
2023-04-14T10:03:01.750Z,100367.03
2023-04-14T10:05:34.887Z,100332.81
2023-04-14T10:08:06.972Z,100328.75
2023-04-14T10:10:37.794Z,100360.28
2023-04-14T10:13:08.772Z,100356.63
2023-04-14T10:15:43.416Z,100353.63
2023-04-14T10:18:15.336Z,100361.25
2023-04-14T10:20:47.349Z,100353.75
2023-04-14T10:23:21.390Z,100353.44
2023-04-14T10:25:53.312Z,100356.81
2023-04-14T10:28:27.964Z,100302.94
2023-04-14T10:31:04.495Z,100360.56
2023-04-14T10:33:35.552Z,100350.81
2023-04-14T10:36:07.624Z,100348.31
2023-04-14T10:38:43.138Z,100340.00
2023-04-14T10:41:14.905Z,100331.88
2023-04-14T10:43:47.152Z,100332.41
2023-04-14T10:46:21.450Z,100331.66
2023-04-14T10:48:52.555Z,100340.09
2023-04-14T10:51:23.573Z,100321.13
2023-04-14T10:53:55.809Z,100330.19
2023-04-14T10:56:29.438Z,100334.09
2023-04-14T10:59:01.866Z,100334.34
2023-04-14T11:01:35.305Z,100331.91
2023-04-14T11:04:21.022Z,100330.19
2023-04-14T11:06:57.423Z,100324.75
2023-04-14T11:09:38.207Z,100290.50
2023-04-14T11:12:29.088Z,100315.09
2023-04-14T11:15:05.326Z,100310.69
2023-04-14T11:17:41.310Z,100287.50
2023-04-14T11:20:18.101Z,100310.16
2023-04-14T11:22:51.080Z,100306.63
2023-04-14T11:25:25.719Z,100312.69
2023-04-14T11:27:56.995Z,100303.75
2023-04-14T11:30:28.152Z,100306.50
2023-04-14T11:33:02.202Z,100305.31
2023-04-14T11:35:33.858Z,100305.63
2023-04-14T11:38:04.852Z,100276.66
2023-04-14T11:40:36.839Z,100302.00
2023-04-14T11:43:09.361Z,100302.44
2023-04-14T11:45:45.761Z,100278.28
2023-04-14T11:48:22.742Z,100295.97
2023-04-14T11:50:53.937Z,100286.69
2023-04-14T11:53:24.840Z,100279.41
2023-04-14T11:55:57.785Z,100288.75
2023-04-14T11:58:30.494Z,100291.53
2023-04-14T12:01:04.536Z,100285.69
2023-04-14T12:03:39.743Z,100282.91
2023-04-14T12:06:10.916Z,100256.44
2023-04-14T12:08:41.715Z,100275.03
2023-04-14T12:11:16.448Z,100281.13
2023-04-14T12:13:48.571Z,100274.00
2023-04-14T12:16:23.090Z,100278.84
2023-04-14T12:18:57.188Z,100271.84
2023-04-14T12:21:27.984Z,100257.88
2023-04-14T12:23:59.187Z,100247.31
2023-04-14T12:26:29.856Z,100255.03
2023-04-14T12:29:02.375Z,100257.63
2023-04-14T12:31:33.774Z,100263.38
2023-04-14T12:34:08.495Z,100262.69
2023-04-14T12:36:50.002Z,100254.09
2023-04-14T12:39:22.400Z,100241.91
2023-04-14T12:41:55.819Z,100244.03
2023-04-14T12:44:30.732Z,100240.75
2023-04-14T12:47:04.104Z,100210.00
2023-04-14T12:49:40.787Z,100233.00
2023-04-14T12:52:13.468Z,100234.19
2023-04-14T12:54:52.267Z,100232.03
2023-04-14T12:57:24.271Z,100190.22
2023-04-14T12:59:55.495Z,100224.22
2023-04-14T13:02:38.217Z,100220.06
2023-04-14T13:05:31.764Z,100113.66
2023-04-14T13:08:02.933Z,100193.19
2023-04-14T13:10:33.790Z,100213.56
2023-04-14T13:13:05.378Z,100214.13
2023-04-14T13:16:13.108Z,100190.25
2023-04-14T13:18:30.134Z,100217.66
2023-04-14T13:21:06.007Z,100203.75
2023-04-14T13:23:37.933Z,100202.31
2023-04-14T13:26:11.240Z,100178.09
2023-04-14T13:28:42.757Z,100175.97
2023-04-14T13:31:15.983Z,100175.16
2023-04-14T13:33:47.503Z,100197.50
2023-04-14T13:36:25.370Z,100221.81
2023-04-14T13:38:57.956Z,100221.16
2023-04-14T13:41:29.254Z,100168.31
2023-04-14T13:44:38.055Z,100219.25
2023-04-14T13:47:24.249Z,100230.31
2023-04-14T13:49:59.020Z,100208.41
2023-04-14T13:52:38.724Z,100221.59
2023-04-14T13:55:13.065Z,100224.28
2023-04-14T13:57:43.928Z,100198.00
2023-04-14T14:00:17.959Z,100218.56
2023-04-14T14:02:49.959Z,100205.94
2023-04-14T14:05:21.267Z,100212.28
2023-04-14T14:07:52.530Z,100216.75
2023-04-14T14:10:29.934Z,100227.38
2023-04-14T14:13:08.374Z,100221.09
2023-04-14T14:15:41.621Z,100219.28
2023-04-14T14:18:13.819Z,100152.00
2023-04-14T14:20:45.156Z,100216.53
2023-04-14T14:23:16.827Z,100224.28
2023-04-14T14:25:51.325Z,100226.63
2023-04-14T14:28:24.027Z,100225.28
2023-04-14T14:30:55.022Z,100204.09
2023-04-14T14:33:25.651Z,100221.13
2023-04-14T14:35:57.236Z,100219.53
2023-04-14T14:38:28.004Z,100219.66
2023-04-14T14:41:03.101Z,100215.25
2023-04-14T14:43:34.467Z,100211.00
2023-04-14T14:46:06.104Z,100219.44
2023-04-14T14:48:39.228Z,100231.63
2023-04-14T14:51:11.589Z,100232.53
2023-04-14T14:53:42.636Z,100161.69
2023-04-14T14:56:16.097Z,100217.25
2023-04-14T14:58:47.989Z,100210.66
2023-04-14T15:01:19.263Z,100217.66
2023-04-14T15:03:53.576Z,100207.81
2023-04-14T15:06:28.872Z,100218.69
2023-04-14T15:08:59.534Z,100204.03
2023-04-14T15:11:35.116Z,100208.31
2023-04-14T15:14:06.339Z,100203.78
2023-04-14T15:16:37.476Z,100203.25
2023-04-14T15:19:08.526Z,100165.44
2023-04-14T15:21:39.214Z,100203.44
2023-04-14T15:24:10.222Z,100204.63
2023-04-14T15:26:43.958Z,100181.00
2023-04-14T15:29:14.582Z,100208.00
2023-04-14T15:31:45.308Z,100209.78
2023-04-14T15:34:16.013Z,100208.06
2023-04-14T15:36:47.230Z,100201.53
2023-04-14T15:39:18.272Z,100204.81
2023-04-14T15:41:52.304Z,100200.63
2023-04-14T15:44:23.100Z,100201.69
2023-04-14T15:46:53.653Z,100205.34
2023-04-14T15:49:24.636Z,100181.84
2023-04-14T15:51:57.248Z,100194.44
2023-04-14T15:54:28.086Z,100200.66
2023-04-14T15:57:02.499Z,100188.22
2023-04-14T15:59:34.046Z,100203.31
2023-04-14T16:02:04.982Z,100191.22
2023-04-14T16:04:36.620Z,100190.31
2023-04-14T16:07:07.585Z,100195.84
2023-04-14T16:09:38.838Z,100198.16
2023-04-14T16:12:12.287Z,100193.59
2023-04-14T16:14:43.320Z,100177.00
2023-04-14T16:17:14.354Z,100196.16
2023-04-14T16:19:45.050Z,100204.03
2023-04-14T16:22:15.886Z,100203.91
2023-04-14T16:24:46.824Z,100217.06
2023-04-14T16:27:20.382Z,100176.41
2023-04-14T16:29:51.173Z,100207.50
2023-04-14T16:32:21.905Z,100189.47
2023-04-14T16:34:52.798Z,100210.16
2023-04-14T16:37:25.915Z,100213.78
2023-04-14T16:39:57.869Z,100205.09
2023-04-14T16:42:31.109Z,100202.31
2023-04-14T16:45:01.948Z,100200.91
2023-04-14T16:47:32.615Z,100201.78
2023-04-14T16:50:03.433Z,100198.53
2023-04-14T16:52:35.212Z,100177.66
2023-04-14T16:55:06.053Z,100213.25
2023-04-14T16:57:39.302Z,100207.22
2023-04-14T17:00:12.296Z,100203.84
2023-04-14T17:02:43.803Z,100210.28
2023-04-14T17:05:16.332Z,100211.56
2023-04-14T17:07:47.200Z,100212.56
2023-04-14T17:10:18.352Z,100205.88
2023-04-14T17:12:52.751Z,100195.69
2023-04-14T17:17:54.833Z,100224.47
2023-04-14T17:20:25.829Z,100228.88
2023-04-14T17:22:57.984Z,100236.69
2023-04-14T17:25:29.403Z,100237.03
2023-04-14T17:28:02.973Z,100232.63
2023-04-14T17:30:34.984Z,100230.72
2023-04-14T17:33:10.614Z,100226.19
2023-04-14T17:35:41.496Z,100223.16
2023-04-14T17:38:12.193Z,100234.34
2023-04-14T17:40:42.914Z,100238.63
2023-04-14T17:43:16.190Z,100249.09
2023-04-14T17:45:50.649Z,100245.03
2023-04-14T17:48:21.676Z,100218.31
2023-04-14T17:50:53.124Z,100243.00
2023-04-14T17:53:23.854Z,100256.38
2023-04-14T17:55:55.024Z,100259.63
2023-04-14T17:58:28.924Z,100256.94
2023-04-14T18:00:59.863Z,100258.78
2023-04-14T18:03:30.934Z,100276.41
2023-04-14T18:06:01.928Z,100265.81
2023-04-14T18:08:32.583Z,100271.06
2023-04-14T18:11:03.355Z,100276.47
2023-04-14T18:13:36.573Z,100272.50
2023-04-14T18:16:08.171Z,100257.81
2023-04-14T18:18:39.626Z,100278.03
2023-04-14T18:21:10.942Z,100279.28
2023-04-14T18:23:42.097Z,100283.00
2023-04-14T18:28:49.183Z,100293.06
2023-04-14T18:31:20.019Z,100288.78
2023-04-14T18:33:51.198Z,100290.28
2023-04-14T18:36:21.991Z,100293.00
2023-04-14T18:38:52.786Z,100289.81
2023-04-14T18:41:23.485Z,100298.44
2023-04-14T18:43:56.831Z,100290.09
2023-04-14T18:46:27.705Z,100290.56
2023-04-14T18:48:58.771Z,100295.44
2023-04-14T18:51:29.670Z,100299.31
2023-04-14T18:54:03.913Z,100299.63
2023-04-14T18:56:34.750Z,100301.72
2023-04-14T18:59:08.102Z,100312.53
2023-04-14T19:01:39.535Z,100307.22
2023-04-14T19:04:10.584Z,100300.34
2023-04-14T19:06:41.572Z,100302.56
2023-04-14T19:09:12.257Z,100310.38
2023-04-14T19:11:43.222Z,100310.97
2023-04-14T19:14:16.572Z,100314.13
2023-04-14T19:16:48.044Z,100313.22
2023-04-14T19:19:19.532Z,100310.59
2023-04-14T19:21:50.150Z,100315.59
2023-04-14T19:24:21.585Z,100310.91
2023-04-14T19:26:52.305Z,100317.56
2023-04-14T19:29:25.695Z,100319.03
2023-04-14T19:31:56.731Z,100319.75
2023-04-14T19:34:27.745Z,100289.69
2023-04-14T19:36:58.552Z,100310.94
2023-04-14T19:39:29.660Z,100310.94
2023-04-14T19:42:00.403Z,100307.97
2023-04-14T19:44:35.701Z,100301.81
2023-04-14T19:47:06.594Z,100313.63
2023-04-14T19:49:37.727Z,100310.75
2023-04-14T19:52:09.152Z,100306.75
2023-04-14T19:54:40.828Z,100316.94
2023-04-14T19:57:11.585Z,100318.69
2023-04-14T19:59:45.006Z,100320.16
2023-04-14T20:02:15.985Z,100317.50
2023-04-14T20:04:48.747Z,100320.78
2023-04-14T20:07:19.342Z,100323.00
2023-04-14T20:09:50.094Z,100322.59
2023-04-14T20:12:21.080Z,100314.88
2023-04-14T20:14:54.372Z,100317.88
2023-04-14T20:17:27.513Z,100309.31
2023-04-14T20:19:58.432Z,100312.41
2023-04-14T20:22:29.038Z,100309.78
2023-04-14T20:25:00.245Z,100312.13
2023-04-14T20:27:31.906Z,100309.31
2023-04-14T20:30:05.623Z,100304.91
2023-04-14T20:32:36.579Z,100312.16
2023-04-14T20:35:08.129Z,100311.00
2023-04-14T20:37:38.732Z,100308.94
2023-04-14T20:40:10.952Z,100313.50
2023-04-14T20:42:41.500Z,100304.09
2023-04-14T20:45:15.495Z,100298.03
2023-04-14T20:47:46.885Z,100302.59
2023-04-14T20:50:17.959Z,100304.53
2023-04-14T20:52:49.121Z,100308.22
2023-04-14T20:55:21.052Z,100309.69
2023-04-14T20:57:51.800Z,100307.66
2023-04-14T21:00:25.411Z,100309.72
2023-04-14T21:02:56.318Z,100298.94
2023-04-14T21:05:27.231Z,100307.50
2023-04-14T21:07:58.053Z,100302.19
2023-04-14T21:10:29.059Z,100305.31
2023-04-14T21:15:26.455Z,100311.78
2023-04-14T21:15:56.426Z,100302.22
2023-04-14T21:18:27.803Z,100305.28
2023-04-14T21:20:58.622Z,100309.28
2023-04-14T21:23:29.415Z,100299.09
2023-04-14T21:26:00.143Z,100297.34
2023-04-14T21:28:31.587Z,100297.34
2023-04-14T21:31:05.460Z,100290.53
2023-04-14T21:33:36.420Z,100284.34
2023-04-14T21:36:07.514Z,100292.16
2023-04-14T21:38:38.806Z,100261.06
2023-04-14T21:41:10.429Z,100303.22
2023-04-14T21:43:41.938Z,100287.16
2023-04-14T21:46:15.508Z,100301.63
2023-04-14T21:48:46.488Z,100313.56
2023-04-14T21:51:18.796Z,100310.00
2023-04-14T21:53:49.775Z,100309.59
2023-04-14T21:56:20.840Z,100305.31
2023-04-14T21:58:51.470Z,100306.06
2023-04-14T22:01:25.096Z,100310.94
2023-04-14T22:03:56.219Z,100303.84
2023-04-14T22:06:28.221Z,100301.19
2023-04-14T22:09:00.315Z,100300.91
2023-04-14T22:11:31.629Z,100261.91
2023-04-14T22:14:03.043Z,100308.09
2023-04-14T22:16:37.397Z,100286.72
2023-04-14T22:19:08.532Z,100304.44
2023-04-14T22:21:39.448Z,100301.94
2023-04-14T22:24:10.586Z,100301.03
2023-04-14T22:26:41.945Z,100306.19
2023-04-14T22:29:12.626Z,100309.88
2023-04-14T22:31:46.108Z,100309.38
2023-04-14T22:34:18.260Z,100306.75
2023-04-14T22:36:50.527Z,100303.53
2023-04-14T22:39:22.671Z,100312.94
2023-04-14T22:41:54.765Z,100310.91
2023-04-14T22:44:26.372Z,100310.56
2023-04-14T22:47:01.778Z,100307.59
2023-04-14T22:49:33.756Z,100313.81
2023-04-14T22:52:06.147Z,100306.84
2023-04-14T22:54:38.075Z,100309.66
2023-04-14T22:57:11.373Z,100317.59
2023-04-14T22:59:43.650Z,100312.72
2023-04-14T23:02:18.184Z,100307.84
2023-04-14T23:04:50.402Z,100308.72
2023-04-14T23:07:22.428Z,100300.78
2023-04-14T23:09:53.928Z,100308.75
2023-04-14T23:12:28.279Z,100306.44
2023-04-14T23:15:00.206Z,100299.81
2023-04-14T23:17:36.253Z,100300.53
2023-04-14T23:20:07.628Z,100297.88
2023-04-14T23:22:38.696Z,100292.25
2023-04-14T23:25:10.853Z,100296.66
2023-04-14T23:27:41.560Z,100273.63
2023-04-14T23:30:13.489Z,100292.38
2023-04-14T23:32:49.463Z,100296.34
2023-04-14T23:35:20.618Z,100285.44
2023-04-14T23:37:51.551Z,100274.84
2023-04-14T23:40:22.755Z,100287.69
2023-04-14T23:42:56.181Z,100280.34
2023-04-14T23:45:27.407Z,100273.28
2023-04-14T23:48:00.945Z,100285.19
2023-04-14T23:51:01.525Z,100253.03
2023-04-14T23:53:22.895Z,100276.63
2023-04-14T23:55:54.104Z,100266.59
2023-04-14T23:58:26.998Z,100265.41
